Time;durP1;ratioP1;P1;durP2;ratioP2;P2;SDS_P1;SDS_P2;PMS_P1;PMS_P2;Temp;Humidity;BMP_temperature;BMP_pressure;BME280_temperature;BME280_humidity;BME280_pressure;Samples;Min_cycle;Max_cycle;Signal;HPM_P1;HPM_P2
2021/09/23 00:14:18;;;;;;;22.00;11.93;;;;;;;10.76;100.00;100734.93;714379;1180;115586;-73
2021/09/23 00:29:21;;;;;;;21.80;11.45;;;;;;;10.70;100.00;100689.01;713988;1182;114396;-74
2021/09/23 00:44:23;;;;;;;20.95;12.88;;;;;;;10.77;100.00;100674.44;713959;1199;114791;-73
2021/09/23 00:59:25;;;;;;;20.43;13.08;;;;;;;10.74;100.00;100679.95;714104;1203;115942;-73
2021/09/23 01:14:28;;;;;;;17.95;10.63;;;;;;;10.78;100.00;100649.87;714028;1176;114465;-74
2021/09/23 01:29:31;;;;;;;17.70;10.27;;;;;;;10.76;100.00;100643.91;713827;1176;114106;-72
2021/09/23 01:44:34;;;;;;;30.63;13.55;;;;;;;10.69;100.00;100623.55;714083;1200;115219;-72
2021/09/23 01:59:36;;;;;;;46.78;20.78;;;;;;;10.68;100.00;100606.13;714285;1203;115216;-73
2021/09/23 02:14:38;;;;;;;18.55;10.28;;;;;;;10.78;100.00;100559.80;714308;1192;115615;-73
2021/09/23 02:29:41;;;;;;;17.83;9.80;;;;;;;10.87;100.00;100534.58;714120;1199;116006;-72
2021/09/23 02:44:43;;;;;;;19.80;10.50;;;;;;;10.97;100.00;100514.45;714208;1197;115397;-72
2021/09/23 02:59:45;;;;;;;18.50;10.43;;;;;;;11.03;100.00;100471.90;714225;1199;114803;-73
2021/09/23 03:14:48;;;;;;;19.95;9.40;;;;;;;11.12;100.00;100462.41;714455;1200;114337;-72
2021/09/23 03:29:50;;;;;;;20.23;10.10;;;;;;;11.18;100.00;100417.23;714377;1200;114489;-72
2021/09/23 03:44:52;;;;;;;19.25;10.23;;;;;;;11.30;100.00;100407.44;714539;1199;114582;-73
2021/09/23 03:59:54;;;;;;;17.08;11.73;;;;;;;11.33;100.00;100392.21;714308;1199;114324;-73
2021/09/23 04:14:56;;;;;;;23.65;12.28;;;;;;;11.36;100.00;100385.04;714691;1202;114625;-73
2021/09/23 04:29:59;;;;;;;22.00;11.73;;;;;;;11.40;100.00;100363.63;715343;1199;114717;-73
2021/09/23 04:45:02;;;;;;;21.88;11.18;;;;;;;11.48;100.00;100348.00;714590;1199;115712;-74
2021/09/23 05:00:04;;;;;;;24.33;11.70;;;;;;;11.51;100.00;100336.38;714692;1199;116076;-74
2021/09/23 05:15:11;;;;;;;19.20;11.43;;;;;;;11.70;100.00;100319.74;714348;1199;115045;-73
2021/09/23 05:30:14;;;;;;;47.18;25.70;;;;;;;11.86;100.00;100313.89;714518;1184;115408;-79
2021/09/23 05:45:17;;;;;;;21.00;12.48;;;;;;;12.11;100.00;100294.03;714613;1198;114778;-79
2021/09/23 06:00:21;;;;;;;32.70;12.55;;;;;;;12.50;100.00;100285.14;714478;1197;115734;-80
2021/09/23 06:15:23;;;;;;;19.97;10.57;;;;;;;12.77;100.00;100265.83;714349;1199;115415;-79
2021/09/23 06:30:25;;;;;;;25.55;10.90;;;;;;;12.95;100.00;100247.41;714525;1200;114676;-83
2021/09/23 06:45:28;;;;;;;24.80;12.30;;;;;;;13.24;100.00;100235.78;714765;1194;114483;-85
2021/09/23 07:00:32;;;;;;;18.43;11.43;;;;;;;13.46;100.00;100225.73;714552;1200;114894;-85
2021/09/23 07:15:37;;;;;;;22.70;12.03;;;;;;;13.61;100.00;100213.64;715746;1200;114361;-85
2021/09/23 07:30:39;;;;;;;24.35;14.93;;;;;;;13.56;100.00;100213.28;714437;1205;115962;-82
2021/09/23 07:45:42;;;;;;;23.80;14.80;;;;;;;13.47;100.00;100199.25;714212;1192;115061;-77
2021/09/23 08:00:45;;;;;;;31.90;18.53;;;;;;;13.53;100.00;100173.26;714180;1199;114477;-77
2021/09/23 08:15:47;;;;;;;31.83;15.93;;;;;;;13.70;100.00;100137.23;714213;1200;114958;-75
2021/09/23 08:30:51;;;;;;;26.87;16.93;;;;;;;13.99;100.00;100123.66;714136;1199;114309;-76
2021/09/23 08:45:54;;;;;;;33.05;15.30;;;;;;;14.40;100.00;100094.69;714111;1175;114933;-77
2021/09/23 09:01:08;;;;;;;30.10;16.30;;;;;;;14.69;100.00;100068.78;714763;1200;115326;-76
2021/09/23 09:16:15;;;;;;;28.95;15.33;;;;;;;14.88;100.00;100018.25;714578;1199;114783;-77
2021/09/23 09:31:22;;;;;;;26.15;14.28;;;;;;;14.98;100.00;100002.22;714323;1200;115065;-80
2021/09/23 09:46:34;;;;;;;25.03;14.28;;;;;;;15.14;100.00;99969.63;714599;1200;116195;-76
2021/09/23 10:01:38;;;;;;;24.83;14.37;;;;;;;15.33;100.00;99968.36;714419;1200;115380;-77
2021/09/23 10:16:42;;;;;;;34.75;17.58;;;;;;;15.92;100.00;99929.98;714297;1199;114647;-76
2021/09/23 10:31:45;;;;;;;28.63;14.98;;;;;;;16.11;100.00;99897.72;714416;1177;114227;-79
2021/09/23 10:46:47;;;;;;;33.35;18.28;;;;;;;16.25;100.00;99904.02;716505;1200;114835;-76
2021/09/23 11:01:49;;;;;;;36.58;20.15;;;;;;;16.07;100.00;99872.60;714184;1177;115129;-76
2021/09/23 11:17:09;;;;;;;35.48;21.70;;;;;;;15.83;100.00;99820.78;714354;1200;115458;-76
2021/09/23 11:32:11;;;;;;;39.85;22.80;;;;;;;15.83;100.00;99817.33;714415;1202;114730;-73
2021/09/23 11:47:15;;;;;;;39.15;22.50;;;;;;;15.97;100.00;99792.71;714384;1199;114903;-73
2021/09/23 12:02:19;;;;;;;58.50;37.57;;;;;;;16.16;100.00;99750.83;723202;1199;115498;-79
2021/09/23 12:17:23;;;;;;;43.60;26.40;;;;;;;16.23;100.00;99710.21;720293;1200;114141;-77
2021/09/23 12:32:34;;;;;;;37.95;21.93;;;;;;;16.70;100.00;99662.20;714405;1200;114881;-74
2021/09/23 12:47:46;;;;;;;39.10;20.83;;;;;;;17.03;100.00;99657.19;714346;1200;114875;-74
2021/09/23 13:03:05;;;;;;;40.23;26.40;;;;;;;17.09;100.00;99634.40;714352;1200;114906;-74
2021/09/23 13:18:08;;;;;;;31.10;18.53;;;;;;;16.41;100.00;99603.90;714398;1200;115631;-74
2021/09/23 13:33:12;;;;;;;34.60;21.00;;;;;;;16.27;100.00;99575.67;714679;1199;115845;-76
2021/09/23 13:48:14;;;;;;;36.03;20.35;;;;;;;16.07;100.00;99526.03;714314;1205;114621;-77
2021/09/23 14:03:18;;;;;;;40.23;21.03;;;;;;;15.98;100.00;99506.01;714610;1200;114684;-79
2021/09/23 14:18:21;;;;;;;38.67;20.50;;;;;;;15.91;100.00;99507.79;714333;1199;114504;-74
2021/09/23 14:33:44;;;;;;;36.50;20.83;;;;;;;15.83;100.00;99497.34;714472;1200;115517;-77
2021/09/23 19:31:03;;;;;;;14.30;9.55;;;;;;;14.03;100.00;98788.06;720617;1193;24146;-76
2021/09/23 19:46:06;;;;;;;17.03;10.33;;;;;;;14.01;100.00;98747.88;715728;1200;114389;-78
2021/09/23 20:01:08;;;;;;;18.13;10.38;;;;;;;14.07;100.00;98731.30;714779;1199;115291;-74
2021/09/23 20:16:10;;;;;;;14.23;9.27;;;;;;;14.14;100.00;98713.66;714175;1200;113947;-75
2021/09/23 20:31:13;;;;;;;17.30;10.40;;;;;;;14.31;100.00;98664.02;714121;1202;114011;-76
2021/09/23 20:46:16;;;;;;;13.30;9.60;;;;;;;14.36;100.00;98655.53;714379;1200;114491;-75
2021/09/23 21:01:19;;;;;;;8.65;6.40;;;;;;;14.53;100.00;98607.64;714708;1174;114470;-76
2021/09/23 21:16:23;;;;;;;9.68;5.83;;;;;;;14.53;100.00;98663.05;715178;1176;113738;-72
2021/09/23 21:31:25;;;;;;;19.77;4.40;;;;;;;13.11;100.00;98716.85;714448;1202;114071;-73
2021/09/23 21:46:27;;;;;;;10.35;2.83;;;;;;;12.68;100.00;98735.27;714285;1175;114890;-73
2021/09/23 22:01:29;;;;;;;17.10;3.98;;;;;;;12.35;100.00;98716.52;714075;1189;114903;-73
2021/09/23 22:16:32;;;;;;;10.50;3.77;;;;;;;12.30;100.00;98741.55;714093;1206;114356;-73
2021/09/23 22:31:34;;;;;;;15.57;4.57;;;;;;;12.12;100.00;98731.41;714056;1202;115069;-72
2021/09/23 22:46:37;;;;;;;23.33;5.10;;;;;;;11.95;100.00;98758.89;714148;1202;114166;-72
2021/09/23 23:01:40;;;;;;;13.60;3.53;;;;;;;12.17;100.00;98758.95;714009;1201;114557;-72
2021/09/23 23:16:43;;;;;;;17.75;2.93;;;;;;;12.13;100.00;98753.27;714306;1202;114954;-73
2021/09/23 23:31:45;;;;;;;38.25;6.03;;;;;;;12.09;100.00;98739.67;713925;1202;113841;-72
2021/09/23 23:46:47;;;;;;;12.65;3.00;;;;;;;12.00;100.00;98756.53;714507;1200;114983;-73
